Salt Lake City International Airport
KSLC : now visible

Airfield :











YOU CAN JOIN US ON...

 
LOGIN :

Register | Disclaimer

   EN    FR    IT 

 









Legend :    VFR   Marginal VFR   IFR   Intensive IFR   Very Intensive IFR
Visi :
Ceiling :
>= 8 km
>= 3000ft
5 to 8 km
1000 to 3000 ft
1500m to 5 km
500 to 1000 ft
800 to 1500m
200 to 500 ft
< 800m
< 200 ft
Symbols :   Thunderstorms  Fog  Heavy snow  Heavy precipitations  Wind > 20 kt







- Airport Elevation : 4227 ft
- IATA code : SLC


KSLC - Salt Lake City International

CURRENT METAR :
  • 260154Z 00000KT 10SM CLR 32/03 A2992 RMK AO2 SLP069 T03170033

EXPIRED METARs :
  • 260054Z 36005KT 10SM FEW110 33/02 A2993 RMK AO2 SLP071 T03330017
  • 252354Z 02006KT 10SM FEW110 33/02 A2995 RMK AO2 SLP077 T03330017 10344 20317 56018

TAF KSLC
Valid from the 26 at 02:00 until the 27 at 06:00 UTC


260208Z 2602/2706 03006KT P6SM SKC
FM260400 34012KT P6SM SKC
FM260600 28007KT P6SM SKC
FM260900 14005KT P6SM SKC
FM261600 34007KT P6SM SKC
No reported NOTAMs for that airfield.



MET'MAP, your aeronautical weather chart ! - Copyright ORBIFLY December 2007 - Disclaimer

ORBIFLY MET'MAP TEAM :

Programming & Development : Alexandra Zaïnal
Concept & Development : Baudouin d'Aumeries
Co-Development & Prog : Marc-Olivier Méhu
Technical & hardware support : Manuel Goepfert

Contact : metmap@orbifly.com




SOURCES & CREDITS :

   NOAA       Earth
Advisory